sensor_id;sensor_type;location;lat;lon;timestamp;P1;durP1;ratioP1;P2;durP2;ratioP2
36789;SDS011;22740;52.182;8.780;2022-09-03T00:06:16;2.97;;;0.60;;
36789;SDS011;22740;52.182;8.780;2022-09-03T00:12:23;1.98;;;0.55;;
36789;SDS011;22740;52.182;8.780;2022-09-03T00:18:30;5.43;;;0.57;;
36789;SDS011;22740;52.182;8.780;2022-09-03T00:24:35;3.90;;;0.50;;
36789;SDS011;22740;52.182;8.780;2022-09-03T00:30:41;1.55;;;0.40;;
36789;SDS011;22740;52.182;8.780;2022-09-03T00:36:46;1.42;;;0.45;;
36789;SDS011;22740;52.182;8.780;2022-09-03T00:42:55;1.45;;;0.50;;
36789;SDS011;22740;52.182;8.780;2022-09-03T01:21:07;3.10;;;0.68;;
36789;SDS011;22740;52.182;8.780;2022-09-03T01:27:43;1.42;;;0.60;;
36789;SDS011;22740;52.182;8.780;2022-09-03T01:34:02;2.88;;;0.60;;
36789;SDS011;22740;52.182;8.780;2022-09-03T01:46:32;1.98;;;0.63;;
36789;SDS011;22740;52.182;8.780;2022-09-03T01:58:51;4.10;;;0.73;;
36789;SDS011;22740;52.182;8.780;2022-09-03T02:05:05;2.58;;;0.40;;
36789;SDS011;22740;52.182;8.780;2022-09-03T02:11:15;1.40;;;0.60;;
36789;SDS011;22740;52.182;8.780;2022-09-03T02:17:17;3.80;;;0.40;;
36789;SDS011;22740;52.182;8.780;2022-09-03T02:23:19;1.60;;;0.50;;
36789;SDS011;22740;52.182;8.780;2022-09-03T02:29:27;2.17;;;0.50;;
36789;SDS011;22740;52.182;8.780;2022-09-03T02:35:30;1.25;;;0.60;;
36789;SDS011;22740;52.182;8.780;2022-09-03T02:41:32;1.02;;;0.47;;
36789;SDS011;22740;52.182;8.780;2022-09-03T02:47:34;2.17;;;0.50;;
36789;SDS011;22740;52.182;8.780;2022-09-03T02:53:41;3.17;;;0.82;;
36789;SDS011;22740;52.182;8.780;2022-09-03T02:59:43;1.58;;;0.45;;
36789;SDS011;22740;52.182;8.780;2022-09-03T03:05:47;0.70;;;0.45;;
36789;SDS011;22740;52.182;8.780;2022-09-03T03:11:52;1.55;;;0.80;;
36789;SDS011;22740;52.182;8.780;2022-09-03T03:17:56;1.63;;;0.52;;
36789;SDS011;22740;52.182;8.780;2022-09-03T03:23:57;2.60;;;0.70;;
36789;SDS011;22740;52.182;8.780;2022-09-03T03:30:02;1.55;;;0.70;;
36789;SDS011;22740;52.182;8.780;2022-09-03T03:36:11;4.15;;;0.60;;
36789;SDS011;22740;52.182;8.780;2022-09-03T03:42:15;2.15;;;0.50;;
36789;SDS011;22740;52.182;8.780;2022-09-03T03:48:16;1.83;;;0.70;;
36789;SDS011;22740;52.182;8.780;2022-09-03T03:54:18;2.35;;;0.60;;
36789;SDS011;22740;52.182;8.780;2022-09-03T04:00:20;1.90;;;0.70;;
36789;SDS011;22740;52.182;8.780;2022-09-03T04:06:24;1.80;;;0.60;;
36789;SDS011;22740;52.182;8.780;2022-09-03T04:12:26;2.65;;;1.13;;
36789;SDS011;22740;52.182;8.780;2022-09-03T04:18:29;1.35;;;0.52;;
36789;SDS011;22740;52.182;8.780;2022-09-03T04:24:31;1.65;;;0.60;;
36789;SDS011;22740;52.182;8.780;2022-09-03T04:30:33;1.85;;;0.65;;
36789;SDS011;22740;52.182;8.780;2022-09-03T04:36:35;4.50;;;0.70;;
36789;SDS011;22740;52.182;8.780;2022-09-03T04:42:37;1.70;;;0.60;;
36789;SDS011;22740;52.182;8.780;2022-09-03T04:48:39;2.83;;;0.80;;
36789;SDS011;22740;52.182;8.780;2022-09-03T04:54:42;1.35;;;0.63;;
36789;SDS011;22740;52.182;8.780;2022-09-03T05:00:43;5.53;;;0.90;;
36789;SDS011;22740;52.182;8.780;2022-09-03T05:06:45;5.35;;;0.68;;
36789;SDS011;22740;52.182;8.780;2022-09-03T05:12:56;5.05;;;0.93;;
36789;SDS011;22740;52.182;8.780;2022-09-03T05:18:58;2.05;;;0.80;;
36789;SDS011;22740;52.182;8.780;2022-09-03T05:25:01;1.02;;;0.65;;
36789;SDS011;22740;52.182;8.780;2022-09-03T05:31:05;5.22;;;0.80;;
36789;SDS011;22740;52.182;8.780;2022-09-03T05:37:11;2.45;;;0.70;;
36789;SDS011;22740;52.182;8.780;2022-09-03T05:43:13;2.00;;;0.70;;
36789;SDS011;22740;52.182;8.780;2022-09-03T05:49:17;3.45;;;0.85;;
36789;SDS011;22740;52.182;8.780;2022-09-03T05:55:19;1.42;;;0.57;;
36789;SDS011;22740;52.182;8.780;2022-09-03T06:01:25;3.70;;;0.90;;
36789;SDS011;22740;52.182;8.780;2022-09-03T06:07:29;1.17;;;0.60;;
36789;SDS011;22740;52.182;8.780;2022-09-03T06:13:33;2.13;;;0.80;;
36789;SDS011;22740;52.182;8.780;2022-09-03T06:19:35;1.98;;;0.70;;
36789;SDS011;22740;52.182;8.780;2022-09-03T06:25:37;3.22;;;0.73;;
36789;SDS011;22740;52.182;8.780;2022-09-03T06:31:42;1.25;;;0.63;;
36789;SDS011;22740;52.182;8.780;2022-09-03T06:37:44;2.22;;;0.70;;
36789;SDS011;22740;52.182;8.780;2022-09-03T06:43:46;2.92;;;1.35;;
36789;SDS011;22740;52.182;8.780;2022-09-03T06:49:49;2.17;;;0.68;;
36789;SDS011;22740;52.182;8.780;2022-09-03T06:55:52;1.75;;;0.75;;
36789;SDS011;22740;52.182;8.780;2022-09-03T07:01:54;1.77;;;0.90;;
36789;SDS011;22740;52.182;8.780;2022-09-03T07:07:58;1.65;;;0.60;;
36789;SDS011;22740;52.182;8.780;2022-09-03T07:14:00;1.77;;;0.90;;
36789;SDS011;22740;52.182;8.780;2022-09-03T07:20:04;1.98;;;0.70;;
36789;SDS011;22740;52.182;8.780;2022-09-03T07:26:07;3.90;;;0.80;;
36789;SDS011;22740;52.182;8.780;2022-09-03T07:32:11;3.35;;;0.80;;
36789;SDS011;22740;52.182;8.780;2022-09-03T07:38:16;2.65;;;1.00;;
36789;SDS011;22740;52.182;8.780;2022-09-03T07:44:23;2.85;;;0.95;;
36789;SDS011;22740;52.182;8.780;2022-09-03T07:50:25;2.67;;;0.98;;
36789;SDS011;22740;52.182;8.780;2022-09-03T07:56:28;1.00;;;0.70;;
36789;SDS011;22740;52.182;8.780;2022-09-03T08:02:35;1.88;;;0.80;;
36789;SDS011;22740;52.182;8.780;2022-09-03T08:08:37;1.95;;;0.90;;
36789;SDS011;22740;52.182;8.780;2022-09-03T08:14:40;2.63;;;0.60;;
36789;SDS011;22740;52.182;8.780;2022-09-03T08:20:42;4.07;;;0.95;;
36789;SDS011;22740;52.182;8.780;2022-09-03T08:26:44;3.45;;;0.80;;
36789;SDS011;22740;52.182;8.780;2022-09-03T08:32:52;2.50;;;0.80;;
36789;SDS011;22740;52.182;8.780;2022-09-03T08:38:56;6.13;;;0.90;;
36789;SDS011;22740;52.182;8.780;2022-09-03T08:45:07;2.80;;;0.90;;
36789;SDS011;22740;52.182;8.780;2022-09-03T08:51:13;2.80;;;0.73;;
36789;SDS011;22740;52.182;8.780;2022-09-03T08:57:18;2.88;;;0.90;;
36789;SDS011;22740;52.182;8.780;2022-09-03T09:09:46;2.15;;;0.80;;
36789;SDS011;22740;52.182;8.780;2022-09-03T09:22:10;3.40;;;0.70;;
36789;SDS011;22740;52.182;8.780;2022-09-03T09:28:34;3.95;;;0.70;;
36789;SDS011;22740;52.182;8.780;2022-09-03T09:34:38;3.72;;;0.80;;
36789;SDS011;22740;52.182;8.780;2022-09-03T09:40:42;3.30;;;0.70;;
36789;SDS011;22740;52.182;8.780;2022-09-03T09:46:45;1.95;;;0.73;;
36789;SDS011;22740;52.182;8.780;2022-09-03T09:53:01;3.10;;;0.68;;
36789;SDS011;22740;52.182;8.780;2022-09-03T09:59:09;1.45;;;0.80;;
36789;SDS011;22740;52.182;8.780;2022-09-03T10:18:18;2.53;;;0.60;;
36789;SDS011;22740;52.182;8.780;2022-09-03T10:24:52;3.10;;;0.80;;
36789;SDS011;22740;52.182;8.780;2022-09-03T10:31:14;3.28;;;0.88;;
36789;SDS011;22740;52.182;8.780;2022-09-03T10:37:32;2.55;;;0.95;;
36789;SDS011;22740;52.182;8.780;2022-09-03T10:44:04;5.05;;;0.90;;
36789;SDS011;22740;52.182;8.780;2022-09-03T10:57:10;2.95;;;0.80;;
36789;SDS011;22740;52.182;8.780;2022-09-03T11:09:47;4.07;;;0.80;;
36789;SDS011;22740;52.182;8.780;2022-09-03T11:15:53;1.45;;;0.60;;
36789;SDS011;22740;52.182;8.780;2022-09-03T11:21:59;2.72;;;0.60;;
36789;SDS011;22740;52.182;8.780;2022-09-03T11:40:41;2.47;;;0.90;;
36789;SDS011;22740;52.182;8.780;2022-09-03T11:46:57;2.22;;;0.90;;
36789;SDS011;22740;52.182;8.780;2022-09-03T11:53:07;2.55;;;0.60;;
36789;SDS011;22740;52.182;8.780;2022-09-03T12:06:00;1.55;;;0.70;;
36789;SDS011;22740;52.182;8.780;2022-09-03T12:18:07;1.85;;;0.65;;
36789;SDS011;22740;52.182;8.780;2022-09-03T12:24:23;1.65;;;0.77;;
36789;SDS011;22740;52.182;8.780;2022-09-03T12:30:37;5.25;;;0.90;;
36789;SDS011;22740;52.182;8.780;2022-09-03T12:36:43;2.50;;;0.55;;
36789;SDS011;22740;52.182;8.780;2022-09-03T12:42:46;5.85;;;1.10;;
36789;SDS011;22740;52.182;8.780;2022-09-03T12:48:54;1.90;;;0.80;;
36789;SDS011;22740;52.182;8.780;2022-09-03T13:01:48;3.17;;;1.00;;
36789;SDS011;22740;52.182;8.780;2022-09-03T13:07:54;1.45;;;0.63;;
36789;SDS011;22740;52.182;8.780;2022-09-03T13:20:19;4.45;;;0.80;;
36789;SDS011;22740;52.182;8.780;2022-09-03T13:26:44;2.40;;;0.70;;
36789;SDS011;22740;52.182;8.780;2022-09-03T13:39:42;2.33;;;0.90;;
36789;SDS011;22740;52.182;8.780;2022-09-03T13:45:44;3.42;;;0.77;;
36789;SDS011;22740;52.182;8.780;2022-09-03T13:51:57;2.55;;;0.70;;
36789;SDS011;22740;52.182;8.780;2022-09-03T13:58:40;3.47;;;0.68;;
36789;SDS011;22740;52.182;8.780;2022-09-03T14:04:46;7.47;;;0.73;;
36789;SDS011;22740;52.182;8.780;2022-09-03T14:11:11;2.25;;;0.73;;
36789;SDS011;22740;52.182;8.780;2022-09-03T14:23:50;2.22;;;0.95;;
36789;SDS011;22740;52.182;8.780;2022-09-03T14:30:31;2.22;;;0.80;;
36789;SDS011;22740;52.182;8.780;2022-09-03T14:36:46;2.65;;;0.77;;
36789;SDS011;22740;52.182;8.780;2022-09-03T14:43:20;3.30;;;0.80;;
36789;SDS011;22740;52.182;8.780;2022-09-03T14:50:01;4.43;;;0.90;;
36789;SDS011;22740;52.182;8.780;2022-09-03T15:09:08;4.50;;;0.85;;
36789;SDS011;22740;52.182;8.780;2022-09-03T15:27:59;5.72;;;1.42;;
36789;SDS011;22740;52.182;8.780;2022-09-03T15:53:05;2.83;;;0.77;;
36789;SDS011;22740;52.182;8.780;2022-09-03T15:59:30;2.30;;;0.80;;
36789;SDS011;22740;52.182;8.780;2022-09-03T16:05:54;1.67;;;0.82;;
36789;SDS011;22740;52.182;8.780;2022-09-03T16:18:32;2.45;;;0.80;;
36789;SDS011;22740;52.182;8.780;2022-09-03T16:24:47;3.65;;;0.68;;
36789;SDS011;22740;52.182;8.780;2022-09-03T16:37:45;2.22;;;0.90;;
36789;SDS011;22740;52.182;8.780;2022-09-03T16:56:55;2.67;;;0.95;;
36789;SDS011;22740;52.182;8.780;2022-09-03T17:09:31;2.35;;;0.82;;
36789;SDS011;22740;52.182;8.780;2022-09-03T17:15:51;2.22;;;1.02;;
36789;SDS011;22740;52.182;8.780;2022-09-03T17:28:56;1.50;;;0.80;;
36789;SDS011;22740;52.182;8.780;2022-09-03T17:35:31;2.25;;;0.80;;
36789;SDS011;22740;52.182;8.780;2022-09-03T17:41:54;4.70;;;0.80;;
36789;SDS011;22740;52.182;8.780;2022-09-03T17:48:23;1.52;;;0.90;;
36789;SDS011;22740;52.182;8.780;2022-09-03T17:54:42;1.92;;;0.57;;
36789;SDS011;22740;52.182;8.780;2022-09-03T18:13:43;2.78;;;1.00;;
36789;SDS011;22740;52.182;8.780;2022-09-03T18:20:06;4.78;;;0.80;;
36789;SDS011;22740;52.182;8.780;2022-09-03T18:26:30;2.90;;;0.97;;
36789;SDS011;22740;52.182;8.780;2022-09-03T18:32:56;2.08;;;0.88;;
36789;SDS011;22740;52.182;8.780;2022-09-03T18:39:23;2.13;;;1.00;;
36789;SDS011;22740;52.182;8.780;2022-09-03T18:46:20;3.97;;;1.42;;
36789;SDS011;22740;52.182;8.780;2022-09-03T18:52:56;4.53;;;1.20;;
36789;SDS011;22740;52.182;8.780;2022-09-03T18:59:26;6.65;;;1.40;;
36789;SDS011;22740;52.182;8.780;2022-09-03T19:06:19;4.60;;;1.27;;
36789;SDS011;22740;52.182;8.780;2022-09-03T19:25:42;4.40;;;1.48;;
36789;SDS011;22740;52.182;8.780;2022-09-03T19:32:03;5.85;;;1.30;;
36789;SDS011;22740;52.182;8.780;2022-09-03T19:38:37;4.85;;;1.50;;
36789;SDS011;22740;52.182;8.780;2022-09-03T19:45:11;5.20;;;1.50;;
36789;SDS011;22740;52.182;8.780;2022-09-03T19:58:11;4.95;;;1.40;;
36789;SDS011;22740;52.182;8.780;2022-09-03T20:04:45;5.25;;;1.50;;
36789;SDS011;22740;52.182;8.780;2022-09-03T20:11:19;8.20;;;1.65;;
36789;SDS011;22740;52.182;8.780;2022-09-03T20:30:21;3.70;;;1.42;;
36789;SDS011;22740;52.182;8.780;2022-09-03T20:36:43;2.58;;;1.00;;
36789;SDS011;22740;52.182;8.780;2022-09-03T20:55:41;4.38;;;1.25;;
36789;SDS011;22740;52.182;8.780;2022-09-03T21:14:21;1.83;;;1.00;;
36789;SDS011;22740;52.182;8.780;2022-09-03T21:27:11;2.88;;;1.20;;
36789;SDS011;22740;52.182;8.780;2022-09-03T21:34:06;4.05;;;1.20;;
36789;SDS011;22740;52.182;8.780;2022-09-03T21:39:55;3.33;;;0.90;;
36789;SDS011;22740;52.182;8.780;2022-09-03T21:46:03;3.38;;;1.20;;
36789;SDS011;22740;52.182;8.780;2022-09-03T21:52:20;2.15;;;1.15;;
36789;SDS011;22740;52.182;8.780;2022-09-03T22:04:37;2.83;;;1.13;;
36789;SDS011;22740;52.182;8.780;2022-09-03T22:23:48;9.23;;;1.83;;
36789;SDS011;22740;52.182;8.780;2022-09-03T22:36:46;3.72;;;1.10;;
36789;SDS011;22740;52.182;8.780;2022-09-03T22:42:58;2.67;;;1.13;;
36789;SDS011;22740;52.182;8.780;2022-09-03T22:49:30;2.47;;;1.10;;
36789;SDS011;22740;52.182;8.780;2022-09-03T22:55:32;3.13;;;1.33;;
36789;SDS011;22740;52.182;8.780;2022-09-03T23:07:49;2.88;;;1.00;;
36789;SDS011;22740;52.182;8.780;2022-09-03T23:14:01;4.53;;;1.35;;
36789;SDS011;22740;52.182;8.780;2022-09-03T23:20:08;2.90;;;1.17;;
36789;SDS011;22740;52.182;8.780;2022-09-03T23:26:22;1.92;;;1.08;;
36789;SDS011;22740;52.182;8.780;2022-09-03T23:32:28;2.58;;;1.20;;
36789;SDS011;22740;52.182;8.780;2022-09-03T23:38:54;2.70;;;1.30;;
36789;SDS011;22740;52.182;8.780;2022-09-03T23:45:08;2.80;;;1.17;;
36789;SDS011;22740;52.182;8.780;2022-09-03T23:51:37;5.50;;;1.42;;
36789;SDS011;22740;52.182;8.780;2022-09-03T23:57:58;2.80;;;1.40;;
